createdAt,value
2023-03-21T00:01:04.568Z,6.40
2023-03-21T00:03:32.646Z,6.80
2023-03-21T00:06:00.214Z,7.18
2023-03-21T00:08:27.588Z,7.10
2023-03-21T00:10:58.782Z,6.93
2023-03-21T00:13:26.881Z,6.72
2023-03-21T00:16:05.981Z,7.05
2023-03-21T00:18:42.514Z,7.00
2023-03-21T00:24:00.206Z,6.03
2023-03-21T00:26:28.132Z,6.40
2023-03-21T00:28:55.627Z,5.50
2023-03-21T00:31:24.050Z,6.10
2023-03-21T00:33:52.656Z,6.50
2023-03-21T00:36:22.114Z,6.90
2023-03-21T00:38:49.675Z,6.68
2023-03-21T00:41:26.188Z,6.85
2023-03-21T00:44:02.461Z,6.22
2023-03-21T00:46:39.886Z,5.73
2023-03-21T00:49:10.034Z,6.18
2023-03-21T00:51:37.128Z,5.90
2023-03-21T00:54:06.790Z,6.22
2023-03-21T00:56:33.934Z,6.25
2023-03-21T00:59:01.082Z,6.50
2023-03-21T01:01:32.419Z,6.28
2023-03-21T01:04:07.991Z,6.28
2023-03-21T01:06:39.783Z,6.70
2023-03-21T01:09:27.256Z,7.30
2023-03-21T01:11:55.476Z,6.65
2023-03-21T01:14:23.918Z,5.93
2023-03-21T01:16:53.519Z,6.40
2023-03-21T01:19:27.438Z,5.70
2023-03-21T01:21:56.969Z,5.90
2023-03-21T01:24:25.017Z,6.50
2023-03-21T01:26:52.338Z,6.85
2023-03-21T01:29:21.914Z,6.97
2023-03-21T01:31:49.442Z,7.30
2023-03-21T01:34:16.854Z,6.75
2023-03-21T01:36:44.211Z,7.03
2023-03-21T01:39:17.320Z,7.15
2023-03-21T01:41:47.094Z,6.63
2023-03-21T01:44:19.703Z,6.50
2023-03-21T01:47:09.859Z,6.65
2023-03-21T01:49:40.455Z,6.90
2023-03-21T01:52:33.371Z,6.40
2023-03-21T01:55:02.849Z,7.28
2023-03-21T01:57:43.589Z,7.45
2023-03-21T02:00:16.148Z,6.63
2023-03-21T02:02:52.790Z,7.60
2023-03-21T02:06:02.966Z,7.05
2023-03-21T02:08:39.464Z,7.13
2023-03-21T02:11:11.900Z,7.20
2023-03-21T02:13:42.602Z,6.90
2023-03-21T02:16:17.407Z,6.47
2023-03-21T02:18:51.197Z,6.60
2023-03-21T02:21:19.648Z,6.20
2023-03-21T02:24:13.412Z,6.00
2023-03-21T02:26:48.201Z,5.90
2023-03-21T02:29:29.562Z,6.53
2023-03-21T02:32:28.422Z,7.57
2023-03-21T02:35:16.274Z,6.57
2023-03-21T02:37:55.205Z,6.13
2023-03-21T02:40:37.200Z,6.65
2023-03-21T02:43:23.421Z,6.82
2023-03-21T02:46:03.890Z,6.95
2023-03-21T02:48:50.389Z,6.40
2023-03-21T02:51:23.833Z,6.22
2023-03-21T02:54:24.849Z,6.88
2023-03-21T02:56:49.353Z,7.60
2023-03-21T02:59:18.512Z,6.70
2023-03-21T03:01:46.754Z,7.28
2023-03-21T03:04:21.131Z,7.13
2023-03-21T03:06:54.252Z,6.40
2023-03-21T03:09:47.849Z,6.50
2023-03-21T03:12:21.200Z,6.65
2023-03-21T03:15:03.199Z,6.60
2023-03-21T03:17:44.747Z,6.22
2023-03-21T03:20:16.572Z,6.78
2023-03-21T03:22:54.622Z,6.70
2023-03-21T03:25:39.872Z,7.03
2023-03-21T03:28:11.983Z,7.30
2023-03-21T03:30:51.086Z,6.18
2023-03-21T03:33:26.268Z,6.40
2023-03-21T03:36:05.044Z,6.68
2023-03-21T03:38:37.467Z,6.80
2023-03-21T03:41:10.085Z,6.57
2023-03-21T03:43:51.275Z,6.20
2023-03-21T03:46:27.513Z,6.65
2023-03-21T03:48:59.834Z,6.78
2023-03-21T03:51:32.984Z,6.82
2023-03-21T03:54:17.945Z,6.70
2023-03-21T03:56:45.578Z,6.47
2023-03-21T03:59:13.088Z,6.65
2023-03-21T04:01:59.214Z,6.65
2023-03-21T04:04:29.570Z,6.25
2023-03-21T04:06:58.257Z,6.35
2023-03-21T04:09:42.763Z,6.53
2023-03-21T04:12:13.374Z,6.75
2023-03-21T04:14:46.037Z,6.38
2023-03-21T04:17:16.254Z,5.82
2023-03-21T04:19:43.633Z,6.20
2023-03-21T04:22:11.400Z,6.70
2023-03-21T04:24:43.415Z,6.13
2023-03-21T04:27:12.480Z,6.78
2023-03-21T04:29:50.076Z,6.45
2023-03-21T04:32:40.145Z,6.38
2023-03-21T04:35:12.888Z,6.00
2023-03-21T04:37:40.287Z,7.13
2023-03-21T04:40:17.010Z,6.45
2023-03-21T04:42:44.713Z,8.35
2023-03-21T04:45:18.145Z,8.35
2023-03-21T04:47:51.533Z,9.13
2023-03-21T04:50:20.290Z,8.00
2023-03-21T04:52:50.810Z,8.52
2023-03-21T04:55:24.511Z,8.75
2023-03-21T04:57:57.077Z,8.20
2023-03-21T05:00:28.452Z,7.72
2023-03-21T05:02:57.925Z,9.05
2023-03-21T05:05:28.024Z,9.00
2023-03-21T05:07:55.191Z,8.65
2023-03-21T05:10:23.674Z,8.82
2023-03-21T05:12:52.227Z,8.20
2023-03-21T05:15:20.566Z,8.10
2023-03-21T05:17:50.656Z,8.45
2023-03-21T05:20:18.141Z,8.00
2023-03-21T05:22:46.510Z,7.90
2023-03-21T05:25:18.539Z,8.13
2023-03-21T05:28:02.402Z,7.07
2023-03-21T05:30:35.067Z,7.70
2023-03-21T05:33:04.293Z,7.88
2023-03-21T05:35:32.454Z,7.35
2023-03-21T05:38:06.330Z,6.80
2023-03-21T05:40:48.101Z,7.63
2023-03-21T05:43:15.680Z,6.97
2023-03-21T05:45:43.792Z,8.05
2023-03-21T05:48:11.580Z,7.60
2023-03-21T05:50:56.601Z,7.65
2023-03-21T05:53:24.401Z,7.45
2023-03-21T05:55:51.684Z,7.82
2023-03-21T05:58:43.934Z,8.00
2023-03-21T06:01:11.259Z,6.78
2023-03-21T06:03:42.327Z,7.15
2023-03-21T06:06:17.851Z,8.50
2023-03-21T06:08:53.210Z,8.25
2023-03-21T06:11:32.588Z,8.27
2023-03-21T06:14:21.677Z,8.75
2023-03-21T06:17:10.198Z,7.65
2023-03-21T06:19:43.988Z,8.43
2023-03-21T06:22:17.936Z,8.18
2023-03-21T06:24:45.551Z,7.70
2023-03-21T06:27:13.223Z,8.90
2023-03-21T06:29:53.294Z,8.90
2023-03-21T06:32:21.485Z,8.13
2023-03-21T06:34:52.902Z,8.88
2023-03-21T06:37:22.124Z,8.77
2023-03-21T06:39:50.398Z,9.30
2023-03-21T06:42:19.965Z,8.23
2023-03-21T06:44:49.096Z,8.48
2023-03-21T06:47:17.107Z,8.52
2023-03-21T06:49:48.525Z,8.60
2023-03-21T06:52:16.585Z,9.65
2023-03-21T06:54:44.090Z,8.68
2023-03-21T06:57:13.795Z,9.07
2023-03-21T06:59:44.673Z,8.48
2023-03-21T07:02:30.590Z,8.00
2023-03-21T07:05:04.535Z,8.80
2023-03-21T07:07:31.906Z,7.72
2023-03-21T07:09:59.663Z,8.43
2023-03-21T07:12:36.388Z,8.45
2023-03-21T07:15:29.671Z,8.00
2023-03-21T07:17:57.097Z,8.93
2023-03-21T07:20:24.345Z,9.07
2023-03-21T07:22:51.605Z,8.80
2023-03-21T07:25:20.486Z,8.43
2023-03-21T07:27:50.021Z,8.13
2023-03-21T07:30:18.027Z,7.07
2023-03-21T07:32:48.705Z,6.97
2023-03-21T07:35:17.203Z,7.53
2023-03-21T07:37:46.780Z,7.60
2023-03-21T07:40:16.889Z,7.30
2023-03-21T07:42:44.724Z,6.85
2023-03-21T07:45:19.873Z,6.63
2023-03-21T07:47:48.986Z,6.72
2023-03-21T07:50:16.472Z,6.00
2023-03-21T07:52:47.833Z,6.43
2023-03-21T07:55:17.997Z,6.72
2023-03-21T07:57:52.528Z,6.90
2023-03-21T08:00:23.498Z,6.38
2023-03-21T08:02:57.172Z,7.50
2023-03-21T08:05:28.148Z,7.53
2023-03-21T08:07:58.481Z,6.97
2023-03-21T08:10:26.063Z,7.90
2023-03-21T08:12:53.214Z,7.60
2023-03-21T08:15:21.006Z,7.78
2023-03-21T08:17:48.318Z,7.60
2023-03-21T08:20:17.318Z,7.25
2023-03-21T08:22:44.634Z,7.47
2023-03-21T08:25:14.362Z,6.85
2023-03-21T08:27:44.956Z,7.32
2023-03-21T08:30:13.331Z,6.80
2023-03-21T08:32:43.010Z,6.60
2023-03-21T08:35:11.767Z,6.78
2023-03-21T08:37:39.562Z,6.40
2023-03-21T08:40:12.040Z,6.45
2023-03-21T08:42:40.168Z,9.33
2023-03-21T08:45:08.750Z,11.55
2023-03-21T08:47:39.105Z,12.00
2023-03-21T08:50:07.654Z,12.27
2023-03-21T08:52:35.376Z,11.90
2023-03-21T08:55:02.813Z,12.57
2023-03-21T08:57:30.878Z,12.45
2023-03-21T08:59:58.190Z,13.15
2023-03-21T09:02:25.380Z,12.88
2023-03-21T09:04:59.386Z,12.40
2023-03-21T09:07:28.307Z,14.20
2023-03-21T09:10:14.932Z,14.82
2023-03-21T09:12:50.823Z,14.07
2023-03-21T09:15:22.287Z,15.02
2023-03-21T09:17:53.295Z,14.55
2023-03-21T09:20:26.577Z,13.47
2023-03-21T09:22:54.091Z,14.95
2023-03-21T09:25:22.034Z,10.57
2023-03-21T09:27:49.097Z,9.60
2023-03-21T09:30:20.917Z,8.27
2023-03-21T09:32:56.017Z,8.67
2023-03-21T09:35:24.676Z,9.80
2023-03-21T09:37:51.983Z,9.48
2023-03-21T09:40:22.653Z,10.18
2023-03-21T09:42:50.306Z,10.40
2023-03-21T09:45:28.328Z,9.80
2023-03-21T09:47:59.672Z,9.05
2023-03-21T09:50:28.207Z,9.27
2023-03-21T09:52:57.597Z,10.30
2023-03-21T09:55:30.040Z,10.00
2023-03-21T09:58:12.768Z,11.77
2023-03-21T10:00:42.429Z,12.13
2023-03-21T10:03:26.687Z,12.60
2023-03-21T10:06:01.128Z,11.77
2023-03-21T10:08:39.595Z,12.75
2023-03-21T10:11:13.299Z,13.13
2023-03-21T10:13:47.298Z,11.93
2023-03-21T10:16:16.161Z,12.20
2023-03-21T10:18:44.629Z,12.68
2023-03-21T10:21:37.325Z,11.82
2023-03-21T10:24:04.377Z,12.20
2023-03-21T10:26:35.046Z,11.70
2023-03-21T10:29:05.335Z,11.80
2023-03-21T10:31:42.691Z,11.27
2023-03-21T10:34:20.377Z,10.70
2023-03-21T10:36:48.011Z,10.93
2023-03-21T10:39:21.322Z,9.70
2023-03-21T10:41:48.605Z,9.98
2023-03-21T10:44:19.622Z,9.52
2023-03-21T10:46:58.509Z,9.48
2023-03-21T10:49:27.233Z,9.83
2023-03-21T10:51:57.399Z,9.65
2023-03-21T10:54:28.613Z,9.15
2023-03-21T10:57:01.097Z,9.70
2023-03-21T10:59:35.053Z,8.98
2023-03-21T11:02:04.067Z,7.50
2023-03-21T11:04:32.596Z,6.78
2023-03-21T11:07:02.616Z,7.60
2023-03-21T11:09:55.914Z,6.50
2023-03-21T11:12:42.052Z,6.53
2023-03-21T11:15:27.730Z,6.40
2023-03-21T11:17:57.978Z,7.20
2023-03-21T11:20:25.286Z,7.55
2023-03-21T11:22:54.879Z,7.32
2023-03-21T11:25:24.093Z,7.53
2023-03-21T11:27:52.627Z,7.20
2023-03-21T11:30:22.018Z,7.70
2023-03-21T11:32:52.532Z,7.63
2023-03-21T11:35:21.650Z,7.68
2023-03-21T11:37:55.830Z,8.27
2023-03-21T11:40:25.531Z,7.87
2023-03-21T11:42:56.895Z,8.40
2023-03-21T11:45:33.262Z,8.48
2023-03-21T11:48:03.756Z,8.93
2023-03-21T11:50:56.979Z,8.75
2023-03-21T11:53:31.923Z,8.87
2023-03-21T11:56:17.775Z,8.70
2023-03-21T11:59:08.964Z,8.80
2023-03-21T12:01:55.038Z,8.32
2023-03-21T12:04:44.779Z,8.70
2023-03-21T12:07:31.104Z,8.47
2023-03-21T12:10:17.722Z,8.07
2023-03-21T12:13:00.461Z,9.40
2023-03-21T12:15:40.943Z,8.70
2023-03-21T12:18:17.033Z,9.55
2023-03-21T12:20:50.803Z,11.10
2023-03-21T12:23:38.641Z,12.68
2023-03-21T12:26:12.651Z,11.57
2023-03-21T12:28:52.454Z,11.05
2023-03-21T12:31:30.187Z,10.48
2023-03-21T12:34:13.280Z,9.90
2023-03-21T12:36:47.987Z,10.45
2023-03-21T12:39:15.546Z,11.10
2023-03-21T12:41:49.328Z,10.98
2023-03-21T12:44:23.277Z,10.38
2023-03-21T12:46:53.600Z,10.83
2023-03-21T12:49:23.768Z,11.48
2023-03-21T12:51:55.936Z,10.35
2023-03-21T12:54:35.229Z,9.77
2023-03-21T12:57:09.372Z,10.38
2023-03-21T12:59:42.695Z,9.90
2023-03-21T13:02:18.869Z,9.80
2023-03-21T13:04:48.743Z,9.70
2023-03-21T13:07:20.461Z,9.05
2023-03-21T13:09:50.170Z,7.45
2023-03-21T13:12:30.691Z,7.83
2023-03-21T13:15:18.492Z,6.95
2023-03-21T13:18:11.021Z,6.65
2023-03-21T13:20:44.031Z,6.82
2023-03-21T13:23:12.349Z,7.15
2023-03-21T13:25:48.514Z,5.53
2023-03-21T13:28:21.513Z,5.75
2023-03-21T13:30:52.963Z,5.38
2023-03-21T13:33:32.489Z,5.20
2023-03-21T13:36:05.749Z,5.95
2023-03-21T13:38:40.467Z,5.70
2023-03-21T13:41:09.879Z,6.40
2023-03-21T13:43:52.481Z,5.88
2023-03-21T13:46:25.557Z,5.40
2023-03-21T13:49:08.397Z,5.03
2023-03-21T13:51:43.495Z,5.73
2023-03-21T13:54:15.515Z,5.35
2023-03-21T13:56:45.689Z,6.40
2023-03-21T13:59:33.225Z,6.65
2023-03-21T14:02:12.999Z,5.47
2023-03-21T14:04:53.860Z,5.57
2023-03-21T14:07:31.266Z,5.73
2023-03-21T14:10:09.073Z,6.53
2023-03-21T14:12:42.964Z,6.88
2023-03-21T14:15:19.969Z,6.80
2023-03-21T14:17:57.445Z,7.95
2023-03-21T14:20:30.711Z,6.20
2023-03-21T14:22:58.491Z,6.18
2023-03-21T14:25:37.249Z,6.03
2023-03-21T14:28:13.664Z,6.65
2023-03-21T14:30:41.802Z,8.52
2023-03-21T14:33:28.481Z,8.90
2023-03-21T14:35:59.776Z,7.95
2023-03-21T14:38:32.526Z,6.93
2023-03-21T14:41:00.002Z,7.20
2023-03-21T14:43:28.475Z,6.93
2023-03-21T14:45:56.724Z,6.50
2023-03-21T14:48:33.231Z,7.15
2023-03-21T14:51:08.487Z,6.72
2023-03-21T14:53:40.381Z,6.80
2023-03-21T14:56:07.858Z,8.18
2023-03-21T14:58:38.767Z,10.10
2023-03-21T15:01:10.647Z,9.38
2023-03-21T15:03:38.389Z,9.68
2023-03-21T15:06:06.082Z,9.25
2023-03-21T15:08:33.333Z,12.98
2023-03-21T15:11:07.189Z,13.37
2023-03-21T15:13:50.056Z,7.57
2023-03-21T15:16:18.157Z,6.53
2023-03-21T15:18:46.396Z,7.13
2023-03-21T15:21:24.195Z,5.38
2023-03-21T15:23:53.365Z,6.97
2023-03-21T15:26:22.305Z,6.43
2023-03-21T15:28:51.833Z,11.20
2023-03-21T15:31:23.069Z,10.27
2023-03-21T15:33:51.795Z,13.05
2023-03-21T15:36:24.272Z,13.43
2023-03-21T15:38:52.003Z,13.55
2023-03-21T15:41:22.312Z,13.32
2023-03-21T15:43:57.965Z,13.32
2023-03-21T15:46:44.054Z,13.80
2023-03-21T15:49:19.544Z,13.90
2023-03-21T15:51:49.873Z,14.20
2023-03-21T15:54:20.521Z,15.27
2023-03-21T15:56:52.100Z,16.83
2023-03-21T15:59:19.889Z,15.73
2023-03-21T16:01:51.293Z,17.83
2023-03-21T16:04:23.856Z,13.30
2023-03-21T16:06:52.934Z,11.15
2023-03-21T16:09:23.979Z,12.25
2023-03-21T16:11:55.547Z,14.52
2023-03-21T16:14:23.534Z,12.20
2023-03-21T16:16:51.242Z,11.70
2023-03-21T16:19:18.497Z,20.55
2023-03-21T16:21:46.276Z,13.55
2023-03-21T16:24:13.888Z,12.55
2023-03-21T16:26:48.189Z,12.50
2023-03-21T16:29:17.517Z,11.38
2023-03-21T16:31:44.864Z,12.40
2023-03-21T16:34:12.806Z,11.95
2023-03-21T16:36:41.365Z,10.40
2023-03-21T16:39:30.332Z,10.23
2023-03-21T16:41:58.508Z,10.98
2023-03-21T16:44:25.832Z,10.98
2023-03-21T16:46:53.054Z,12.80
2023-03-21T16:49:22.632Z,13.23
2023-03-21T16:51:50.151Z,12.10
2023-03-21T16:54:18.026Z,10.63
2023-03-21T16:56:47.301Z,10.70
2023-03-21T16:59:14.892Z,11.85
2023-03-21T17:01:42.975Z,11.80
2023-03-21T17:04:11.452Z,10.97
2023-03-21T17:06:44.980Z,11.23
2023-03-21T17:09:13.631Z,10.75
2023-03-21T17:11:41.983Z,10.10
2023-03-21T17:14:10.355Z,10.32
2023-03-21T17:16:40.575Z,9.53
2023-03-21T17:19:15.956Z,10.32
2023-03-21T17:21:43.245Z,10.10
2023-03-21T17:24:10.477Z,10.77
2023-03-21T17:26:38.292Z,10.95
2023-03-21T17:29:06.349Z,11.93
2023-03-21T17:31:35.529Z,12.52
2023-03-21T17:34:03.621Z,12.63
2023-03-21T17:36:33.538Z,11.48
2023-03-21T17:39:01.198Z,12.65
2023-03-21T17:41:28.417Z,13.40
2023-03-21T17:43:56.381Z,13.63
2023-03-21T17:46:31.159Z,13.30
2023-03-21T17:48:58.350Z,14.18
2023-03-21T17:51:30.461Z,14.93
2023-03-21T17:53:57.781Z,13.33
2023-03-21T17:56:32.507Z,13.60
2023-03-21T17:59:00.844Z,12.70
2023-03-21T18:01:28.427Z,24.50
2023-03-21T18:03:56.552Z,9.65
2023-03-21T18:06:25.974Z,9.33
2023-03-21T18:08:54.114Z,11.43
2023-03-21T18:11:22.063Z,16.13
2023-03-21T18:13:49.381Z,16.17
2023-03-21T18:16:17.595Z,13.65
2023-03-21T18:18:46.837Z,12.27
2023-03-21T18:21:14.679Z,10.35
2023-03-21T18:23:42.349Z,11.77
2023-03-21T18:26:10.034Z,13.55
2023-03-21T18:28:39.951Z,12.90
2023-03-21T18:31:17.952Z,13.30
2023-03-21T18:33:47.274Z,10.93
2023-03-21T18:36:24.694Z,11.68
2023-03-21T18:38:52.943Z,10.95
2023-03-21T18:41:21.257Z,9.73
2023-03-21T18:44:14.846Z,9.67
2023-03-21T18:46:36.966Z,9.10
2023-03-21T18:49:27.538Z,8.90
2023-03-21T18:51:52.773Z,10.65
2023-03-21T18:54:20.828Z,11.57
2023-03-21T18:59:44.958Z,12.20
2023-03-21T19:02:12.759Z,11.25
2023-03-21T19:04:43.651Z,12.10
2023-03-21T19:07:12.059Z,11.48
2023-03-21T19:10:01.503Z,11.65
2023-03-21T19:12:27.480Z,11.50
2023-03-21T19:14:54.876Z,10.68
2023-03-21T19:20:10.249Z,10.63
2023-03-21T19:22:37.466Z,9.52
2023-03-21T19:25:05.801Z,10.20
2023-03-21T19:27:34.175Z,8.90
2023-03-21T19:30:13.994Z,9.70
2023-03-21T19:32:44.613Z,8.57
2023-03-21T19:35:11.934Z,13.50
2023-03-21T19:37:39.083Z,13.10
2023-03-21T19:40:07.352Z,13.43
2023-03-21T19:42:36.591Z,10.20
2023-03-21T19:45:05.109Z,9.95
2023-03-21T19:47:35.061Z,11.68
2023-03-21T19:52:49.625Z,9.77
2023-03-21T19:55:16.803Z,9.32
2023-03-21T19:57:43.968Z,9.68
2023-03-21T20:00:11.768Z,8.20
2023-03-21T20:02:39.379Z,7.30
2023-03-21T20:05:07.974Z,8.45
2023-03-21T20:07:35.300Z,10.32
2023-03-21T20:10:03.203Z,10.68
2023-03-21T20:12:32.847Z,10.90
2023-03-21T20:15:12.386Z,10.07
2023-03-21T20:17:46.128Z,8.82
2023-03-21T20:20:18.616Z,9.25
2023-03-21T20:25:34.651Z,12.40
2023-03-21T20:28:25.054Z,14.00
2023-03-21T20:30:53.409Z,15.88
2023-03-21T20:33:20.719Z,13.48
2023-03-21T20:38:36.445Z,14.73
2023-03-21T20:41:04.800Z,18.50
2023-03-21T20:46:19.414Z,16.48
2023-03-21T20:48:49.927Z,13.00
2023-03-21T20:52:26.925Z,11.30
2023-03-21T20:54:07.161Z,10.38
2023-03-21T20:56:35.226Z,10.50
2023-03-21T20:59:16.308Z,11.30
2023-03-21T21:01:48.467Z,11.77
2023-03-21T21:04:23.061Z,11.15
2023-03-21T21:06:54.772Z,11.18
2023-03-21T21:09:22.141Z,11.50
2023-03-21T21:12:06.125Z,10.30
2023-03-21T21:14:37.776Z,9.73
2023-03-21T21:17:23.785Z,10.18
2023-03-21T21:19:52.940Z,10.23
2023-03-21T21:22:20.625Z,9.98
2023-03-21T21:24:48.253Z,10.98
2023-03-21T21:27:15.500Z,10.20
2023-03-21T21:29:43.702Z,9.85
2023-03-21T21:32:14.755Z,10.38
2023-03-21T21:34:42.592Z,10.27
2023-03-21T21:37:09.877Z,9.77
2023-03-21T21:39:38.158Z,10.55
2023-03-21T21:42:05.740Z,10.07
2023-03-21T21:44:32.942Z,10.30
2023-03-21T21:47:00.233Z,11.25
2023-03-21T21:49:28.458Z,11.80
2023-03-21T21:51:56.537Z,11.05
2023-03-21T21:54:23.685Z,11.52
2023-03-21T21:56:54.339Z,11.63
2023-03-21T21:59:22.436Z,12.50
2023-03-21T22:01:51.610Z,11.30
2023-03-21T22:04:28.127Z,11.13
2023-03-21T22:06:56.455Z,10.18
2023-03-21T22:09:23.946Z,8.13
2023-03-21T22:11:51.929Z,9.75
2023-03-21T22:14:19.232Z,8.45
2023-03-21T22:16:47.128Z,9.63
2023-03-21T22:19:14.366Z,11.50
2023-03-21T22:21:41.596Z,9.93
2023-03-21T22:24:09.010Z,10.10
2023-03-21T22:26:36.559Z,7.97
2023-03-21T22:29:04.878Z,8.15
2023-03-21T22:31:32.486Z,8.77
2023-03-21T22:33:59.813Z,9.07
2023-03-21T22:36:28.068Z,9.15
2023-03-21T22:38:56.057Z,8.05
2023-03-21T22:41:23.240Z,7.32
2023-03-21T22:43:50.722Z,6.45
2023-03-21T22:46:17.876Z,7.00
2023-03-21T22:48:45.230Z,6.65
2023-03-21T22:51:13.959Z,5.95
2023-03-21T22:53:41.311Z,6.00
2023-03-21T22:56:09.135Z,7.13
2023-03-21T22:58:37.492Z,6.77
2023-03-21T23:01:05.837Z,7.30
2023-03-21T23:03:33.423Z,7.57
2023-03-21T23:06:04.382Z,7.80
2023-03-21T23:08:31.538Z,8.25
2023-03-21T23:10:58.670Z,8.55
2023-03-21T23:13:27.343Z,7.75
2023-03-21T23:15:54.494Z,8.25
2023-03-21T23:18:21.886Z,7.25
2023-03-21T23:20:49.796Z,8.50
2023-03-21T23:23:16.994Z,9.55
2023-03-21T23:25:44.382Z,12.07
2023-03-21T23:28:11.455Z,16.63
2023-03-21T23:30:39.452Z,17.40
2023-03-21T23:33:09.722Z,18.98
2023-03-21T23:35:38.585Z,19.52
2023-03-21T23:38:06.050Z,20.13
2023-03-21T23:40:35.806Z,21.20
2023-03-21T23:43:03.003Z,23.45
2023-03-21T23:45:30.264Z,23.02
2023-03-21T23:47:57.502Z,25.15
2023-03-21T23:50:24.742Z,24.70
2023-03-21T23:52:51.792Z,23.85
2023-03-21T23:55:19.121Z,22.55
2023-03-21T23:57:47.419Z,23.88
